createdAt,value
2024-03-06T00:01:29.336Z,40.85
2024-03-06T00:04:03.203Z,43.26
2024-03-06T00:06:37.781Z,40.62
2024-03-06T00:09:09.985Z,44.20
2024-03-06T00:11:43.680Z,44.05
2024-03-06T00:14:20.043Z,45.20
2024-03-06T00:16:57.202Z,40.01
2024-03-06T00:19:33.126Z,42.83
2024-03-06T00:22:05.000Z,40.52
2024-03-06T00:24:38.670Z,42.70
2024-03-06T00:27:14.664Z,37.80
2024-03-06T00:29:50.381Z,39.93
2024-03-06T00:32:24.890Z,37.84
2024-03-06T00:34:58.429Z,39.55
2024-03-06T00:37:34.730Z,42.18
2024-03-06T00:40:11.057Z,40.35
2024-03-06T00:42:44.754Z,40.35
2024-03-06T00:45:18.245Z,39.78
2024-03-06T00:47:54.132Z,39.81
2024-03-06T00:50:27.534Z,39.54
2024-03-06T00:53:04.563Z,37.46
2024-03-06T00:55:40.628Z,39.75
2024-03-06T00:58:14.093Z,39.55
2024-03-06T01:00:47.825Z,40.51
2024-03-06T01:03:19.029Z,42.05
2024-03-06T01:05:54.839Z,42.40
2024-03-06T01:08:29.374Z,40.75
2024-03-06T01:11:05.986Z,37.05
2024-03-06T01:13:42.438Z,38.81
2024-03-06T01:16:13.946Z,41.74
2024-03-06T01:18:45.404Z,38.72
2024-03-06T01:21:21.489Z,40.84
2024-03-06T01:23:56.940Z,42.86
2024-03-06T01:26:30.200Z,41.36
2024-03-06T01:29:04.007Z,42.57
2024-03-06T01:31:38.699Z,42.30
2024-03-06T01:34:12.442Z,41.19
2024-03-06T01:36:46.108Z,41.74
2024-03-06T01:39:19.702Z,40.84
2024-03-06T01:41:52.256Z,39.93
2024-03-06T01:44:23.471Z,41.56
2024-03-06T01:46:57.493Z,44.35
2024-03-06T01:49:36.987Z,39.31
2024-03-06T01:52:22.124Z,43.01
2024-03-06T01:54:58.240Z,40.59
2024-03-06T01:57:29.838Z,42.54
2024-03-06T02:00:02.869Z,41.15
2024-03-06T02:02:42.995Z,40.01
2024-03-06T02:05:22.117Z,43.86
2024-03-06T02:07:56.650Z,40.23
2024-03-06T02:10:28.443Z,41.61
2024-03-06T02:13:04.701Z,40.45
2024-03-06T02:15:38.270Z,39.45
2024-03-06T02:18:10.780Z,42.57
2024-03-06T02:20:42.805Z,41.45
2024-03-06T02:23:14.655Z,41.07
2024-03-06T02:25:49.802Z,41.02
2024-03-06T02:28:28.213Z,44.66
2024-03-06T02:31:01.761Z,41.35
2024-03-06T02:33:35.528Z,41.62
2024-03-06T02:36:07.036Z,40.93
2024-03-06T02:38:40.744Z,39.90
2024-03-06T02:41:17.470Z,39.00
2024-03-06T02:43:51.083Z,41.81
2024-03-06T02:46:22.523Z,39.20
2024-03-06T02:48:58.793Z,39.05
2024-03-06T02:51:37.389Z,40.98
2024-03-06T02:54:10.781Z,39.01
2024-03-06T02:56:46.378Z,39.19
2024-03-06T02:59:20.268Z,39.31
2024-03-06T03:01:54.462Z,37.31
2024-03-06T03:04:28.291Z,28.79
2024-03-06T03:07:02.756Z,25.40
2024-03-06T03:09:37.603Z,19.89
2024-03-06T03:12:13.674Z,15.18
2024-03-06T03:14:45.413Z,16.63
2024-03-06T03:17:18.969Z,15.45
2024-03-06T03:19:54.214Z,16.65
2024-03-06T03:22:29.630Z,18.32
2024-03-06T03:25:08.655Z,19.34
2024-03-06T03:27:45.740Z,16.67
2024-03-06T03:30:23.749Z,17.26
2024-03-06T03:32:56.013Z,16.53
2024-03-06T03:35:33.378Z,17.85
2024-03-06T03:38:09.660Z,20.89
2024-03-06T03:40:41.241Z,22.11
2024-03-06T03:43:15.877Z,23.07
2024-03-06T03:45:54.049Z,23.52
2024-03-06T03:48:27.374Z,23.89
2024-03-06T03:51:00.761Z,22.77
2024-03-06T03:53:39.086Z,25.74
2024-03-06T03:56:12.676Z,24.44
2024-03-06T03:58:49.623Z,25.95
2024-03-06T04:01:23.113Z,32.03
2024-03-06T04:03:59.078Z,28.80
2024-03-06T04:06:35.236Z,26.01
2024-03-06T04:09:06.496Z,27.26
2024-03-06T04:11:39.086Z,25.03
2024-03-06T04:14:13.478Z,24.34
2024-03-06T04:16:44.687Z,23.51
2024-03-06T04:19:22.562Z,22.48
2024-03-06T04:21:57.721Z,22.07
2024-03-06T04:24:36.187Z,12.09
2024-03-06T04:27:09.738Z,17.82
2024-03-06T04:29:43.431Z,15.33
2024-03-06T04:32:19.612Z,14.62
2024-03-06T04:34:54.688Z,16.73
2024-03-06T04:37:31.073Z,16.97
2024-03-06T04:40:05.067Z,17.99
2024-03-06T04:42:39.377Z,19.99
2024-03-06T04:45:18.245Z,21.44
2024-03-06T04:47:51.631Z,23.16
2024-03-06T04:50:22.968Z,22.84
2024-03-06T04:52:59.765Z,22.75
2024-03-06T04:55:38.428Z,22.96
2024-03-06T04:58:09.973Z,22.66
2024-03-06T05:00:43.293Z,26.44
2024-03-06T05:59:18.487Z,16.68
2024-03-06T06:01:54.613Z,23.60
2024-03-06T06:04:30.943Z,24.05
2024-03-06T06:07:07.970Z,21.46
2024-03-06T06:09:41.954Z,24.02
2024-03-06T06:12:20.253Z,25.54
2024-03-06T06:14:55.578Z,25.69
2024-03-06T06:17:31.471Z,26.39
2024-03-06T06:20:03.029Z,33.47
2024-03-06T06:22:37.006Z,24.41
2024-03-06T06:25:13.958Z,22.92
2024-03-06T06:27:50.134Z,24.80
2024-03-06T06:30:25.995Z,25.67
2024-03-06T06:32:59.526Z,26.56
2024-03-06T06:35:31.045Z,24.45
2024-03-06T06:38:06.987Z,26.22
2024-03-06T06:40:42.005Z,28.59
2024-03-06T06:43:20.179Z,33.38
2024-03-06T06:45:54.636Z,33.92
2024-03-06T06:48:29.612Z,33.87
2024-03-06T06:51:05.701Z,32.16
2024-03-06T06:53:39.090Z,25.32
2024-03-06T06:56:10.459Z,18.13
2024-03-06T06:58:46.539Z,15.50
2024-03-06T07:01:18.321Z,16.54
2024-03-06T07:03:49.995Z,17.34
2024-03-06T07:06:23.937Z,17.77
2024-03-06T07:08:57.252Z,21.30
2024-03-06T07:11:30.594Z,18.37
2024-03-06T07:14:06.437Z,19.15
2024-03-06T07:16:48.795Z,21.35
2024-03-06T07:19:22.345Z,21.99
2024-03-06T07:21:55.636Z,21.41
2024-03-06T07:24:27.066Z,21.27
2024-03-06T07:27:03.038Z,23.59
2024-03-06T07:29:36.501Z,21.36
2024-03-06T07:32:15.961Z,21.55
2024-03-06T07:34:47.766Z,23.06
2024-03-06T07:37:18.959Z,20.59
2024-03-06T07:39:54.010Z,23.59
2024-03-06T07:42:27.891Z,24.91
2024-03-06T07:45:08.856Z,30.79
2024-03-06T07:47:47.997Z,32.34
2024-03-06T07:50:27.053Z,34.52
2024-03-06T07:53:03.830Z,37.51
2024-03-06T07:55:35.056Z,36.03
2024-03-06T07:58:09.555Z,37.71
2024-03-06T08:00:45.565Z,39.09
2024-03-06T08:03:16.740Z,40.88
2024-03-06T08:05:48.397Z,43.33
2024-03-06T08:08:19.671Z,42.24
2024-03-06T08:10:51.675Z,41.40
2024-03-06T08:13:25.546Z,41.03
2024-03-06T08:15:59.136Z,39.23
2024-03-06T08:18:37.857Z,43.52
2024-03-06T08:21:13.841Z,44.30
2024-03-06T08:23:49.374Z,45.45
2024-03-06T08:26:22.918Z,44.24
2024-03-06T08:28:56.754Z,45.14
2024-03-06T08:31:28.578Z,45.73
2024-03-06T08:34:02.394Z,47.05
2024-03-06T08:36:34.003Z,45.46
2024-03-06T08:39:08.022Z,48.33
2024-03-06T08:41:41.821Z,45.61
2024-03-06T08:44:16.048Z,46.40
2024-03-06T08:46:49.828Z,49.83
2024-03-06T08:49:25.839Z,47.02
2024-03-06T08:51:59.346Z,45.36
2024-03-06T08:54:33.481Z,47.19
2024-03-06T08:57:07.475Z,45.98
2024-03-06T08:59:53.224Z,46.00
2024-03-06T09:02:26.924Z,46.96
2024-03-06T09:05:00.648Z,45.65
2024-03-06T09:07:31.953Z,46.23
2024-03-06T09:10:07.232Z,45.45
2024-03-06T09:12:40.819Z,47.50
2024-03-06T09:15:14.745Z,43.41
2024-03-06T09:17:47.212Z,45.45
2024-03-06T09:20:18.494Z,44.51
2024-03-06T09:22:58.301Z,43.41
2024-03-06T09:25:33.081Z,47.38
2024-03-06T09:28:06.925Z,45.40
2024-03-06T09:30:40.377Z,42.21
2024-03-06T09:33:14.112Z,44.24
2024-03-06T09:35:46.819Z,43.65
2024-03-06T09:38:22.454Z,47.08
2024-03-06T09:41:03.190Z,45.16
2024-03-06T09:43:43.502Z,42.28
2024-03-06T09:46:17.180Z,45.62
2024-03-06T09:48:52.950Z,45.08
2024-03-06T09:51:24.615Z,43.17
2024-03-06T09:53:58.739Z,45.01
2024-03-06T09:56:36.675Z,45.73
2024-03-06T09:59:10.490Z,45.35
2024-03-06T10:02:04.113Z,41.94
2024-03-06T10:04:39.339Z,43.61
2024-03-06T10:07:15.363Z,43.95
2024-03-06T10:09:46.549Z,47.41
2024-03-06T10:12:22.459Z,44.18
2024-03-06T10:14:58.348Z,45.99
2024-03-06T10:17:32.376Z,44.30
2024-03-06T10:20:24.105Z,43.51
2024-03-06T10:22:59.369Z,45.75
2024-03-06T10:25:30.808Z,45.20
2024-03-06T10:28:13.004Z,44.36
2024-03-06T10:30:48.815Z,45.15
2024-03-06T10:33:22.524Z,48.31
2024-03-06T10:35:54.089Z,44.96
2024-03-06T10:38:28.101Z,44.56
2024-03-06T10:41:04.953Z,45.64
2024-03-06T10:43:42.539Z,46.95
2024-03-06T10:46:15.904Z,43.51
2024-03-06T10:48:56.554Z,46.25
2024-03-06T10:51:31.560Z,45.50
2024-03-06T10:54:08.736Z,46.12
2024-03-06T10:56:44.248Z,44.95
2024-03-06T10:59:20.665Z,46.40
2024-03-06T11:01:55.805Z,43.74
2024-03-06T11:04:36.084Z,46.01
2024-03-06T11:07:12.495Z,45.45
2024-03-06T11:09:51.231Z,44.85
2024-03-06T11:12:42.620Z,44.89
2024-03-06T11:15:20.037Z,40.93
2024-03-06T11:17:56.336Z,45.71
2024-03-06T11:20:29.103Z,43.03
2024-03-06T11:23:01.208Z,43.50
2024-03-06T11:25:52.882Z,42.65
2024-03-06T11:28:31.364Z,41.13
2024-03-06T11:31:13.400Z,39.61
2024-03-06T11:33:47.950Z,41.79
2024-03-06T11:36:31.976Z,41.91
2024-03-06T11:39:12.240Z,37.55
2024-03-06T11:41:52.158Z,39.18
2024-03-06T11:44:27.350Z,37.94
2024-03-06T11:47:05.095Z,35.41
2024-03-06T11:49:42.080Z,35.49
2024-03-06T11:52:15.791Z,35.90
2024-03-06T11:54:55.914Z,34.90
2024-03-06T11:57:29.970Z,32.51
2024-03-06T12:00:10.013Z,33.00
2024-03-06T12:02:46.950Z,32.40
2024-03-06T12:05:26.228Z,32.96
2024-03-06T12:08:04.740Z,31.48
2024-03-06T12:10:43.863Z,31.62
2024-03-06T12:13:18.044Z,30.62
2024-03-06T12:15:49.530Z,31.34
2024-03-06T12:18:24.079Z,33.43
2024-03-06T12:20:57.864Z,30.31
2024-03-06T12:23:29.161Z,25.85
2024-03-06T12:26:12.665Z,26.38
2024-03-06T12:28:46.309Z,25.65
2024-03-06T12:31:19.798Z,24.97
2024-03-06T12:34:03.193Z,25.87
2024-03-06T12:36:37.581Z,23.35
2024-03-06T12:39:14.421Z,23.34
2024-03-06T12:41:48.413Z,23.46
2024-03-06T12:44:23.239Z,21.21
2024-03-06T12:46:58.883Z,22.80
2024-03-06T12:49:30.434Z,21.81
2024-03-06T12:52:06.580Z,21.68
2024-03-06T12:54:37.907Z,19.50
2024-03-06T12:57:12.014Z,18.75
2024-03-06T12:59:45.038Z,20.25
2024-03-06T13:02:16.243Z,17.60
2024-03-06T13:04:47.448Z,15.35
2024-03-06T13:07:21.049Z,14.31
2024-03-06T13:09:56.602Z,17.87
2024-03-06T13:12:32.461Z,14.81
2024-03-06T13:15:13.656Z,16.47
2024-03-06T13:17:45.179Z,16.12
2024-03-06T13:20:18.697Z,18.42
2024-03-06T13:22:51.997Z,15.72
2024-03-06T13:25:26.033Z,17.97
2024-03-06T13:28:01.857Z,18.95
2024-03-06T13:30:35.507Z,18.35
2024-03-06T13:33:13.468Z,18.62
2024-03-06T13:35:50.381Z,17.23
2024-03-06T13:38:29.606Z,14.27
2024-03-06T13:41:08.382Z,13.17
2024-03-06T13:43:44.406Z,11.23
2024-03-06T13:46:18.093Z,14.05
2024-03-06T13:48:53.835Z,14.06
2024-03-06T13:51:27.440Z,14.07
2024-03-06T13:54:00.847Z,8.79
2024-03-06T13:56:34.199Z,14.74
2024-03-06T13:59:12.269Z,15.10
2024-03-06T14:01:50.629Z,13.53
2024-03-06T14:04:22.026Z,12.55
2024-03-06T14:06:58.414Z,11.36
2024-03-06T14:09:30.639Z,13.32
2024-03-06T14:12:04.611Z,12.80
2024-03-06T14:14:40.636Z,13.66
2024-03-06T14:17:15.401Z,15.67
2024-03-06T14:19:49.201Z,15.73
2024-03-06T14:22:23.026Z,15.12
2024-03-06T14:24:54.175Z,14.66
2024-03-06T14:27:25.415Z,14.85
2024-03-06T14:29:58.802Z,14.65
2024-03-06T14:32:30.193Z,16.05
2024-03-06T14:35:06.011Z,16.10
2024-03-06T14:37:45.376Z,15.32
2024-03-06T14:40:19.136Z,13.77
2024-03-06T14:42:52.286Z,15.71
2024-03-06T14:45:24.648Z,14.72
2024-03-06T14:47:56.466Z,14.85
2024-03-06T14:50:30.153Z,15.85
2024-03-06T14:53:03.704Z,16.43
2024-03-06T14:55:35.440Z,14.75
2024-03-06T14:58:08.844Z,24.39
2024-03-06T15:00:49.308Z,20.32
2024-03-06T15:03:28.448Z,17.17
2024-03-06T15:06:01.896Z,17.28
2024-03-06T15:08:36.100Z,15.16
2024-03-06T15:11:10.239Z,17.08
2024-03-06T15:13:44.096Z,17.40
2024-03-06T15:16:17.748Z,18.18
2024-03-06T15:18:52.653Z,17.34
2024-03-06T15:21:33.721Z,20.22
2024-03-06T15:24:06.151Z,19.61
2024-03-06T15:26:45.844Z,18.97
2024-03-06T15:29:19.730Z,17.74
2024-03-06T15:31:51.069Z,16.83
2024-03-06T15:34:26.963Z,16.63
2024-03-06T15:37:01.371Z,15.86
2024-03-06T15:39:32.830Z,15.18
2024-03-06T15:42:04.588Z,14.36
2024-03-06T15:44:43.392Z,11.86
2024-03-06T15:47:16.950Z,11.33
2024-03-06T15:49:52.817Z,11.89
2024-03-06T15:52:26.344Z,11.90
2024-03-06T15:55:06.047Z,14.42
2024-03-06T15:57:41.983Z,15.31
2024-03-06T16:00:18.026Z,16.45
2024-03-06T16:02:51.787Z,15.69
2024-03-06T16:05:23.453Z,16.23
2024-03-06T16:08:05.181Z,17.16
2024-03-06T16:10:41.491Z,17.05
2024-03-06T16:13:14.912Z,15.25
2024-03-06T16:15:48.810Z,16.76
2024-03-06T16:18:22.804Z,17.35
2024-03-06T16:20:57.038Z,17.58
2024-03-06T16:23:33.389Z,18.11
2024-03-06T16:26:07.714Z,19.30
2024-03-06T16:28:43.501Z,18.25
2024-03-06T16:31:20.427Z,20.33
2024-03-06T16:33:54.183Z,18.24
2024-03-06T16:36:30.318Z,20.49
2024-03-06T16:39:01.615Z,22.02
2024-03-06T16:41:36.964Z,21.29
2024-03-06T16:44:09.222Z,21.59
2024-03-06T16:46:43.143Z,21.29
2024-03-06T16:49:19.635Z,20.29
2024-03-06T16:51:55.878Z,21.66
2024-03-06T16:54:33.445Z,22.18
2024-03-06T16:57:12.489Z,21.39
2024-03-06T16:59:49.157Z,20.96
2024-03-06T17:02:22.919Z,21.10
2024-03-06T17:04:56.363Z,22.26
2024-03-06T17:07:27.842Z,23.85
2024-03-06T17:10:03.622Z,22.08
2024-03-06T17:12:39.481Z,23.86
2024-03-06T17:15:20.696Z,26.12
2024-03-06T17:17:57.599Z,32.75
2024-03-06T17:20:31.520Z,28.84
2024-03-06T17:23:05.054Z,29.25
2024-03-06T17:25:38.856Z,26.53
2024-03-06T17:28:12.342Z,29.92
2024-03-06T17:30:44.910Z,30.41
2024-03-06T17:33:21.009Z,28.34
2024-03-06T17:35:58.583Z,29.23
2024-03-06T17:38:35.272Z,30.50
2024-03-06T17:41:08.738Z,30.93
2024-03-06T17:43:39.979Z,30.18
2024-03-06T17:46:16.624Z,29.92
2024-03-06T17:48:47.929Z,33.70
2024-03-06T17:51:23.078Z,34.53
2024-03-06T17:53:56.682Z,33.83
2024-03-06T17:56:28.911Z,32.11
2024-03-06T17:59:03.067Z,34.70
2024-03-06T18:01:39.073Z,33.03
2024-03-06T18:04:13.690Z,31.30
2024-03-06T18:06:47.962Z,30.77
2024-03-06T18:09:23.665Z,30.14
2024-03-06T18:11:57.896Z,32.57
2024-03-06T18:14:31.638Z,32.85
2024-03-06T18:17:06.124Z,34.55
2024-03-06T18:19:42.311Z,33.27
2024-03-06T18:22:16.567Z,34.43
2024-03-06T18:24:50.420Z,32.34
2024-03-06T18:27:28.601Z,35.10
2024-03-06T18:29:59.898Z,34.85
2024-03-06T18:32:34.258Z,37.10
2024-03-06T18:35:06.407Z,36.31
2024-03-06T18:37:39.973Z,37.14
2024-03-06T18:40:14.788Z,35.69
2024-03-06T18:42:51.218Z,33.33
2024-03-06T18:45:22.730Z,35.00
2024-03-06T18:47:56.400Z,37.01
2024-03-06T18:50:33.057Z,36.62
2024-03-06T18:53:07.177Z,34.73
2024-03-06T18:55:41.194Z,37.15
2024-03-06T18:58:15.047Z,36.82
2024-03-06T19:00:51.540Z,36.95
2024-03-06T19:03:27.812Z,36.90
2024-03-06T19:06:01.520Z,37.48
2024-03-06T19:08:32.903Z,46.20
2024-03-06T19:11:06.434Z,38.79
2024-03-06T19:13:40.846Z,44.35
2024-03-06T19:16:12.151Z,50.53
2024-03-06T19:18:45.805Z,58.05
2024-03-06T19:21:19.376Z,42.15
2024-03-06T19:23:53.312Z,40.12
2024-03-06T19:26:29.011Z,39.20
2024-03-06T19:29:00.328Z,37.87
2024-03-06T19:31:36.284Z,43.05
2024-03-06T19:34:07.810Z,41.87
2024-03-06T19:36:39.238Z,40.85
2024-03-06T19:39:10.836Z,41.35
2024-03-06T19:41:45.242Z,46.65
2024-03-06T19:44:20.929Z,42.60
2024-03-06T19:46:54.709Z,39.65
2024-03-06T19:49:30.236Z,44.45
2024-03-06T19:52:04.162Z,39.76
2024-03-06T19:54:38.035Z,40.50
2024-03-06T19:57:11.722Z,43.33
2024-03-06T19:59:50.268Z,45.06
2024-03-06T20:02:21.612Z,52.65
2024-03-06T20:04:55.983Z,61.52
2024-03-06T20:07:29.311Z,52.15
2024-03-06T20:10:02.786Z,45.09
2024-03-06T20:12:34.099Z,43.07
2024-03-06T20:15:08.578Z,44.61
2024-03-06T20:17:44.774Z,43.11
2024-03-06T20:20:18.710Z,45.27
2024-03-06T20:22:50.153Z,41.16
2024-03-06T20:25:26.638Z,50.04
2024-03-06T20:28:02.387Z,47.54
2024-03-06T20:30:33.707Z,47.65
2024-03-06T20:33:10.576Z,47.93
2024-03-06T20:35:42.137Z,40.98
2024-03-06T20:38:17.098Z,43.72
2024-03-06T20:40:57.405Z,40.63
2024-03-06T20:43:28.880Z,42.84
2024-03-06T20:46:04.153Z,58.31
2024-03-06T20:48:35.738Z,50.51
2024-03-06T20:51:13.249Z,52.20
2024-03-06T20:53:46.693Z,40.65
2024-03-06T20:56:20.467Z,39.57
2024-03-06T20:58:52.114Z,41.29
2024-03-06T21:01:25.703Z,39.92
2024-03-06T21:03:59.238Z,41.13
2024-03-06T21:06:35.182Z,39.33
2024-03-06T21:09:11.997Z,40.86
2024-03-06T21:11:45.606Z,40.48
2024-03-06T21:14:17.184Z,40.71
2024-03-06T21:16:54.400Z,41.85
2024-03-06T21:19:30.681Z,51.65
2024-03-06T21:22:02.390Z,43.23
2024-03-06T21:24:39.142Z,40.90
2024-03-06T21:27:12.721Z,41.85
2024-03-06T21:29:50.957Z,44.55
2024-03-06T21:32:27.114Z,53.81
2024-03-06T21:34:59.809Z,45.92
2024-03-06T21:37:39.850Z,47.15
2024-03-06T21:40:16.093Z,46.36
2024-03-06T21:42:49.787Z,42.45
2024-03-06T21:45:25.960Z,41.32
2024-03-06T21:47:57.584Z,41.68
2024-03-06T21:50:28.897Z,44.25
2024-03-06T21:53:04.930Z,43.16
2024-03-06T21:55:40.511Z,42.43
2024-03-06T21:58:11.833Z,42.25
2024-03-06T22:00:43.055Z,45.41
2024-03-06T22:03:18.755Z,42.90
2024-03-06T22:05:52.421Z,43.67
2024-03-06T22:08:23.824Z,41.95
2024-03-06T22:10:57.386Z,40.62
2024-03-06T22:13:33.903Z,43.30
2024-03-06T22:16:07.659Z,41.40
2024-03-06T22:18:44.750Z,42.36
2024-03-06T22:21:19.235Z,42.47
2024-03-06T22:23:53.435Z,41.89
2024-03-06T22:26:27.232Z,43.15
2024-03-06T22:28:58.728Z,45.25
2024-03-06T22:31:29.964Z,42.23
2024-03-06T22:34:08.419Z,44.85
2024-03-06T22:36:41.734Z,43.90
2024-03-06T22:39:20.144Z,41.49
2024-03-06T22:41:54.038Z,44.58
2024-03-06T22:44:30.816Z,42.42
2024-03-06T22:47:08.456Z,43.99
2024-03-06T22:49:44.509Z,43.52
2024-03-06T22:52:15.717Z,44.05
2024-03-06T22:54:46.922Z,42.34
2024-03-06T22:57:18.091Z,42.46
2024-03-06T22:59:54.461Z,41.51
2024-03-06T23:02:30.869Z,42.95
2024-03-06T23:05:02.246Z,42.65
2024-03-06T23:07:35.946Z,44.70
2024-03-06T23:10:12.534Z,42.90
2024-03-06T23:12:46.077Z,42.62
2024-03-06T23:15:21.259Z,43.98
2024-03-06T23:17:56.851Z,42.09
2024-03-06T23:20:31.230Z,40.42
2024-03-06T23:23:02.573Z,42.84
2024-03-06T23:25:34.384Z,41.48
2024-03-06T23:28:12.215Z,44.73
2024-03-06T23:30:46.018Z,42.42
2024-03-06T23:33:19.345Z,44.79
2024-03-06T23:35:52.962Z,43.98
2024-03-06T23:38:28.568Z,46.85
2024-03-06T23:41:02.057Z,46.09
2024-03-06T23:43:33.585Z,43.48
2024-03-06T23:46:09.365Z,43.36
2024-03-06T23:48:40.730Z,46.52
2024-03-06T23:51:16.973Z,43.30
2024-03-06T23:53:48.265Z,44.85
2024-03-06T23:56:25.463Z,42.87
2024-03-06T23:58:59.190Z,42.69
